sensor_id;sensor_type;location;lat;lon;timestamp;P1;durP1;ratioP1;P2;durP2;ratioP2
76051;SDS011;64751;48.708;9.710;2023-06-22T14:35:14;0.30;;;0.30;;
76051;SDS011;64751;48.708;9.710;2023-06-22T14:37:42;0.50;;;0.32;;
76051;SDS011;64751;48.708;9.710;2023-06-22T14:40:10;0.52;;;0.45;;
76051;SDS011;64751;48.708;9.710;2023-06-22T14:42:38;0.52;;;0.52;;
76051;SDS011;64751;48.708;9.710;2023-06-22T14:45:06;0.55;;;0.50;;
76051;SDS011;64751;48.708;9.710;2023-06-22T14:47:34;0.82;;;0.50;;
76051;SDS011;64751;48.708;9.710;2023-06-22T14:50:03;1.02;;;0.50;;
76051;SDS011;64751;48.708;9.710;2023-06-22T14:52:31;0.80;;;0.65;;
76051;SDS011;64751;48.708;9.710;2023-06-22T14:54:59;0.75;;;0.50;;
76051;SDS011;64751;48.708;9.710;2023-06-22T14:57:26;0.57;;;0.45;;
76051;SDS011;64751;48.708;9.710;2023-06-22T14:59:54;0.55;;;0.50;;
76051;SDS011;64751;48.708;9.710;2023-06-22T15:02:21;0.45;;;0.45;;
76051;SDS011;64751;48.708;9.710;2023-06-22T15:04:49;0.50;;;0.50;;
76051;SDS011;64751;48.708;9.710;2023-06-22T15:07:20;1.00;;;0.60;;
76051;SDS011;64751;48.708;9.710;2023-06-22T15:09:47;0.50;;;0.50;;
76051;SDS011;64751;48.708;9.710;2023-06-22T15:12:15;0.50;;;0.50;;
76051;SDS011;64751;48.708;9.710;2023-06-22T15:14:42;0.70;;;0.50;;
76051;SDS011;64751;48.708;9.710;2023-06-22T15:17:10;0.43;;;0.43;;
76051;SDS011;64751;48.708;9.710;2023-06-22T15:19:40;0.73;;;0.60;;
76051;SDS011;64751;48.708;9.710;2023-06-22T15:22:07;0.55;;;0.45;;
76051;SDS011;64751;48.708;9.710;2023-06-22T15:24:36;0.32;;;0.32;;
76051;SDS011;64751;48.708;9.710;2023-06-22T15:27:04;0.65;;;0.50;;
76051;SDS011;64751;48.708;9.710;2023-06-22T15:29:32;0.82;;;0.73;;
76051;SDS011;64751;48.708;9.710;2023-06-22T15:32:00;0.35;;;0.35;;
76051;SDS011;64751;48.708;9.710;2023-06-22T15:34:28;0.75;;;0.50;;
76051;SDS011;64751;48.708;9.710;2023-06-22T15:36:55;0.40;;;0.40;;
76051;SDS011;64751;48.708;9.710;2023-06-22T15:39:23;0.55;;;0.43;;
76051;SDS011;64751;48.708;9.710;2023-06-22T15:41:53;0.70;;;0.60;;
76051;SDS011;64751;48.708;9.710;2023-06-22T15:44:21;0.77;;;0.60;;
76051;SDS011;64751;48.708;9.710;2023-06-22T15:46:49;0.85;;;0.63;;
76051;SDS011;64751;48.708;9.710;2023-06-22T15:49:16;0.80;;;0.43;;
76051;SDS011;64751;48.708;9.710;2023-06-22T15:51:44;0.50;;;0.47;;
76051;SDS011;64751;48.708;9.710;2023-06-22T15:54:12;1.00;;;0.60;;
76051;SDS011;64751;48.708;9.710;2023-06-22T15:56:39;0.40;;;0.40;;
76051;SDS011;64751;48.708;9.710;2023-06-22T15:59:08;0.55;;;0.47;;
76051;SDS011;64751;48.708;9.710;2023-06-22T16:01:36;0.63;;;0.47;;
76051;SDS011;64751;48.708;9.710;2023-06-22T16:04:03;0.73;;;0.50;;
76051;SDS011;64751;48.708;9.710;2023-06-22T16:06:31;0.60;;;0.60;;
76051;SDS011;64751;48.708;9.710;2023-06-22T16:08:58;0.73;;;0.52;;
76051;SDS011;64751;48.708;9.710;2023-06-22T16:11:26;0.50;;;0.50;;
76051;SDS011;64751;48.708;9.710;2023-06-22T16:13:55;0.70;;;0.57;;
76051;SDS011;64751;48.708;9.710;2023-06-22T16:16:24;0.43;;;0.43;;
76051;SDS011;64751;48.708;9.710;2023-06-22T16:18:52;0.55;;;0.47;;
76051;SDS011;64751;48.708;9.710;2023-06-22T16:21:20;0.57;;;0.50;;
76051;SDS011;64751;48.708;9.710;2023-06-22T16:23:47;0.38;;;0.38;;
76051;SDS011;64751;48.708;9.710;2023-06-22T16:26:15;0.50;;;0.30;;
76051;SDS011;64751;48.708;9.710;2023-06-22T16:28:43;0.20;;;0.20;;
76051;SDS011;64751;48.708;9.710;2023-06-22T16:31:11;0.77;;;0.50;;
76051;SDS011;64751;48.708;9.710;2023-06-22T16:33:39;0.30;;;0.30;;
76051;SDS011;64751;48.708;9.710;2023-06-22T16:36:13;0.55;;;0.55;;
76051;SDS011;64751;48.708;9.710;2023-06-22T16:38:41;0.50;;;0.45;;
76051;SDS011;64751;48.708;9.710;2023-06-22T16:41:09;0.28;;;0.28;;
76051;SDS011;64751;48.708;9.710;2023-06-22T16:43:36;0.85;;;0.60;;
76051;SDS011;64751;48.708;9.710;2023-06-22T16:46:05;0.52;;;0.50;;
76051;SDS011;64751;48.708;9.710;2023-06-22T16:48:33;0.60;;;0.40;;
76051;SDS011;64751;48.708;9.710;2023-06-22T16:51:01;0.90;;;0.60;;
76051;SDS011;64751;48.708;9.710;2023-06-22T16:53:29;0.40;;;0.40;;
76051;SDS011;64751;48.708;9.710;2023-06-22T16:55:58;0.47;;;0.40;;
76051;SDS011;64751;48.708;9.710;2023-06-22T16:58:25;0.70;;;0.50;;
76051;SDS011;64751;48.708;9.710;2023-06-22T17:00:54;0.80;;;0.60;;
76051;SDS011;64751;48.708;9.710;2023-06-22T17:03:23;0.50;;;0.40;;
76051;SDS011;64751;48.708;9.710;2023-06-22T17:05:54;0.30;;;0.30;;
76051;SDS011;64751;48.708;9.710;2023-06-22T17:08:24;0.45;;;0.40;;
76051;SDS011;64751;48.708;9.710;2023-06-22T17:10:55;0.43;;;0.30;;
76051;SDS011;64751;48.708;9.710;2023-06-22T17:13:23;0.38;;;0.38;;
76051;SDS011;64751;48.708;9.710;2023-06-22T17:15:52;0.50;;;0.50;;
76051;SDS011;64751;48.708;9.710;2023-06-22T17:18:22;0.40;;;0.40;;
76051;SDS011;64751;48.708;9.710;2023-06-22T17:20:51;0.38;;;0.30;;
76051;SDS011;64751;48.708;9.710;2023-06-22T17:23:19;0.50;;;0.50;;
76051;SDS011;64751;48.708;9.710;2023-06-22T17:25:49;0.50;;;0.50;;
76051;SDS011;64751;48.708;9.710;2023-06-22T17:28:19;0.32;;;0.30;;
76051;SDS011;64751;48.708;9.710;2023-06-22T17:30:48;0.40;;;0.40;;
76051;SDS011;64751;48.708;9.710;2023-06-22T17:33:35;0.40;;;0.38;;
76051;SDS011;64751;48.708;9.710;2023-06-22T17:36:03;0.73;;;0.40;;
76051;SDS011;64751;48.708;9.710;2023-06-22T17:38:37;0.35;;;0.35;;
76051;SDS011;64751;48.708;9.710;2023-06-22T17:41:06;0.38;;;0.38;;
76051;SDS011;64751;48.708;9.710;2023-06-22T17:43:42;0.50;;;0.25;;
76051;SDS011;64751;48.708;9.710;2023-06-22T17:46:11;0.40;;;0.40;;
76051;SDS011;64751;48.708;9.710;2023-06-22T17:48:42;0.40;;;0.40;;
76051;SDS011;64751;48.708;9.710;2023-06-22T17:51:13;1.25;;;0.40;;
76051;SDS011;64751;48.708;9.710;2023-06-22T17:53:46;0.35;;;0.22;;
76051;SDS011;64751;48.708;9.710;2023-06-22T17:56:18;0.35;;;0.20;;
76051;SDS011;64751;48.708;9.710;2023-06-22T17:58:52;0.50;;;0.50;;
76051;SDS011;64751;48.708;9.710;2023-06-22T18:01:27;0.68;;;0.40;;
76051;SDS011;64751;48.708;9.710;2023-06-22T18:03:55;0.40;;;0.30;;
76051;SDS011;64751;48.708;9.710;2023-06-22T18:06:25;0.55;;;0.30;;
76051;SDS011;64751;48.708;9.710;2023-06-22T18:08:56;0.55;;;0.35;;
76051;SDS011;64751;48.708;9.710;2023-06-22T18:11:30;0.35;;;0.30;;
76051;SDS011;64751;48.708;9.710;2023-06-22T18:14:00;0.63;;;0.50;;
76051;SDS011;64751;48.708;9.710;2023-06-22T18:16:29;0.55;;;0.35;;
76051;SDS011;64751;48.708;9.710;2023-06-22T18:18:58;0.65;;;0.55;;
76051;SDS011;64751;48.708;9.710;2023-06-22T18:21:26;0.47;;;0.38;;
76051;SDS011;64751;48.708;9.710;2023-06-22T18:23:54;0.60;;;0.32;;
76051;SDS011;64751;48.708;9.710;2023-06-22T18:26:23;0.77;;;0.50;;
76051;SDS011;64751;48.708;9.710;2023-06-22T18:28:55;0.65;;;0.35;;
76051;SDS011;64751;48.708;9.710;2023-06-22T18:31:24;0.30;;;0.25;;
76051;SDS011;64751;48.708;9.710;2023-06-22T18:33:52;0.55;;;0.40;;
76051;SDS011;64751;48.708;9.710;2023-06-22T18:36:22;0.40;;;0.40;;
76051;SDS011;64751;48.708;9.710;2023-06-22T18:38:53;0.25;;;0.25;;
76051;SDS011;64751;48.708;9.710;2023-06-22T18:41:33;0.50;;;0.45;;
76051;SDS011;64751;48.708;9.710;2023-06-22T18:44:03;0.30;;;0.30;;
76051;SDS011;64751;48.708;9.710;2023-06-22T18:46:32;0.40;;;0.40;;
76051;SDS011;64751;48.708;9.710;2023-06-22T18:49:02;0.47;;;0.30;;
76051;SDS011;64751;48.708;9.710;2023-06-22T18:51:48;0.43;;;0.43;;
76051;SDS011;64751;48.708;9.710;2023-06-22T18:54:18;0.32;;;0.30;;
76051;SDS011;64751;48.708;9.710;2023-06-22T18:56:53;0.50;;;0.43;;
76051;SDS011;64751;48.708;9.710;2023-06-22T18:59:45;0.50;;;0.30;;
76051;SDS011;64751;48.708;9.710;2023-06-22T19:02:15;1.27;;;0.50;;
76051;SDS011;64751;48.708;9.710;2023-06-22T19:05:05;0.57;;;0.43;;
76051;SDS011;64751;48.708;9.710;2023-06-22T19:10:24;1.50;;;1.00;;
76051;SDS011;64751;48.708;9.710;2023-06-22T19:12:53;1.70;;;1.13;;
76051;SDS011;64751;48.708;9.710;2023-06-22T19:15:22;1.40;;;1.10;;
76051;SDS011;64751;48.708;9.710;2023-06-22T19:17:59;1.50;;;0.85;;
76051;SDS011;64751;48.708;9.710;2023-06-22T19:20:31;1.40;;;0.95;;
76051;SDS011;64751;48.708;9.710;2023-06-22T19:22:59;1.90;;;1.20;;
76051;SDS011;64751;48.708;9.710;2023-06-22T19:25:27;1.15;;;0.75;;
76051;SDS011;64751;48.708;9.710;2023-06-22T19:27:59;0.52;;;0.30;;
76051;SDS011;64751;48.708;9.710;2023-06-22T19:30:28;0.20;;;0.20;;
76051;SDS011;64751;48.708;9.710;2023-06-22T19:32:58;0.85;;;0.50;;
76051;SDS011;64751;48.708;9.710;2023-06-22T19:35:29;0.93;;;0.73;;
76051;SDS011;64751;48.708;9.710;2023-06-22T19:37:58;1.52;;;1.10;;
76051;SDS011;64751;48.708;9.710;2023-06-22T19:40:25;1.20;;;0.85;;
76051;SDS011;64751;48.708;9.710;2023-06-22T19:42:53;1.88;;;1.02;;
76051;SDS011;64751;48.708;9.710;2023-06-22T19:45:21;0.65;;;0.47;;
76051;SDS011;64751;48.708;9.710;2023-06-22T19:47:50;0.20;;;0.20;;
76051;SDS011;64751;48.708;9.710;2023-06-22T19:50:19;0.38;;;0.32;;
76051;SDS011;64751;48.708;9.710;2023-06-22T19:52:48;0.20;;;0.20;;
76051;SDS011;64751;48.708;9.710;2023-06-22T19:55:15;0.10;;;0.10;;
76051;SDS011;64751;48.708;9.710;2023-06-22T19:57:44;0.25;;;0.20;;
76051;SDS011;64751;48.708;9.710;2023-06-22T20:00:12;0.70;;;0.40;;
76051;SDS011;64751;48.708;9.710;2023-06-22T20:02:49;0.93;;;0.70;;
76051;SDS011;64751;48.708;9.710;2023-06-22T20:05:20;1.05;;;0.60;;
76051;SDS011;64751;48.708;9.710;2023-06-22T20:07:48;0.80;;;0.57;;
76051;SDS011;64751;48.708;9.710;2023-06-22T20:10:17;0.20;;;0.20;;
76051;SDS011;64751;48.708;9.710;2023-06-22T20:12:47;0.30;;;0.30;;
76051;SDS011;64751;48.708;9.710;2023-06-22T20:15:20;0.20;;;0.20;;
76051;SDS011;64751;48.708;9.710;2023-06-22T20:17:56;0.20;;;0.20;;
76051;SDS011;64751;48.708;9.710;2023-06-22T20:20:27;0.20;;;0.20;;
76051;SDS011;64751;48.708;9.710;2023-06-22T20:23:00;0.20;;;0.20;;
76051;SDS011;64751;48.708;9.710;2023-06-22T20:25:29;0.30;;;0.30;;
76051;SDS011;64751;48.708;9.710;2023-06-22T20:28:03;0.10;;;0.10;;
76051;SDS011;64751;48.708;9.710;2023-06-22T20:30:32;0.20;;;0.20;;
76051;SDS011;64751;48.708;9.710;2023-06-22T20:33:01;0.43;;;0.40;;
76051;SDS011;64751;48.708;9.710;2023-06-22T20:37:59;0.55;;;0.20;;
76051;SDS011;64751;48.708;9.710;2023-06-22T20:40:27;0.25;;;0.25;;
76051;SDS011;64751;48.708;9.710;2023-06-22T20:42:55;0.35;;;0.10;;
76051;SDS011;64751;48.708;9.710;2023-06-22T20:45:23;0.20;;;0.20;;
76051;SDS011;64751;48.708;9.710;2023-06-22T20:47:51;0.35;;;0.30;;
76051;SDS011;64751;48.708;9.710;2023-06-22T20:50:22;0.20;;;0.15;;
76051;SDS011;64751;48.708;9.710;2023-06-22T20:52:56;0.10;;;0.10;;
76051;SDS011;64751;48.708;9.710;2023-06-22T20:55:24;0.32;;;0.20;;
76051;SDS011;64751;48.708;9.710;2023-06-22T20:57:51;0.30;;;0.20;;
76051;SDS011;64751;48.708;9.710;2023-06-22T21:00:21;0.32;;;0.30;;
76051;SDS011;64751;48.708;9.710;2023-06-22T21:02:49;0.30;;;0.20;;
76051;SDS011;64751;48.708;9.710;2023-06-22T21:05:18;0.10;;;0.10;;
76051;SDS011;64751;48.708;9.710;2023-06-22T21:07:48;0.30;;;0.30;;
76051;SDS011;64751;48.708;9.710;2023-06-22T21:10:16;0.25;;;0.20;;
76051;SDS011;64751;48.708;9.710;2023-06-22T21:12:43;0.20;;;0.20;;
76051;SDS011;64751;48.708;9.710;2023-06-22T21:15:11;0.13;;;0.13;;
76051;SDS011;64751;48.708;9.710;2023-06-22T21:17:39;0.38;;;0.20;;
76051;SDS011;64751;48.708;9.710;2023-06-22T21:20:07;0.20;;;0.15;;
76051;SDS011;64751;48.708;9.710;2023-06-22T21:22:35;0.20;;;0.20;;
76051;SDS011;64751;48.708;9.710;2023-06-22T21:25:08;0.22;;;0.20;;
76051;SDS011;64751;48.708;9.710;2023-06-22T21:27:37;0.20;;;0.20;;
76051;SDS011;64751;48.708;9.710;2023-06-22T21:30:07;0.20;;;0.10;;
76051;SDS011;64751;48.708;9.710;2023-06-22T21:32:39;0.13;;;0.10;;
76051;SDS011;64751;48.708;9.710;2023-06-22T21:35:07;0.22;;;0.10;;
76051;SDS011;64751;48.708;9.710;2023-06-22T21:37:36;0.17;;;0.15;;
76051;SDS011;64751;48.708;9.710;2023-06-22T21:40:05;0.20;;;0.20;;
76051;SDS011;64751;48.708;9.710;2023-06-22T21:42:35;0.20;;;0.17;;
76051;SDS011;64751;48.708;9.710;2023-06-22T21:45:02;0.20;;;0.20;;
76051;SDS011;64751;48.708;9.710;2023-06-22T21:47:31;0.08;;;0.08;;
76051;SDS011;64751;48.708;9.710;2023-06-22T21:49:58;0.10;;;0.10;;
76051;SDS011;64751;48.708;9.710;2023-06-22T21:52:26;0.13;;;0.13;;
76051;SDS011;64751;48.708;9.710;2023-06-22T21:54:55;0.10;;;0.10;;
76051;SDS011;64751;48.708;9.710;2023-06-22T21:57:23;0.20;;;0.20;;
76051;SDS011;64751;48.708;9.710;2023-06-22T21:59:54;0.20;;;0.20;;
